sensor_id;sensor_type;location;lat;lon;timestamp;P1;durP1;ratioP1;P2;durP2;ratioP2
31091;SDS011;67728;53.122;12.776;2023-07-13T00:00:05;2.43;;;1.97;;
31091;SDS011;67728;53.122;12.776;2023-07-13T00:01:41;7.37;;;4.63;;
31091;SDS011;67728;53.122;12.776;2023-07-13T00:03:12;3.93;;;2.27;;
31091;SDS011;67728;53.122;12.776;2023-07-13T00:04:44;2.53;;;1.63;;
31091;SDS011;67728;53.122;12.776;2023-07-13T00:06:15;3.33;;;2.50;;
31091;SDS011;67728;53.122;12.776;2023-07-13T00:07:46;2.73;;;1.77;;
31091;SDS011;67728;53.122;12.776;2023-07-13T00:09:18;3.67;;;2.20;;
31091;SDS011;67728;53.122;12.776;2023-07-13T00:10:52;2.37;;;1.93;;
31091;SDS011;67728;53.122;12.776;2023-07-13T00:12:25;4.43;;;2.30;;
31091;SDS011;67728;53.122;12.776;2023-07-13T00:13:58;4.87;;;2.33;;
31091;SDS011;67728;53.122;12.776;2023-07-13T00:15:29;75.33;;;20.70;;
31091;SDS011;67728;53.122;12.776;2023-07-13T00:17:03;117.77;;;31.73;;
31091;SDS011;67728;53.122;12.776;2023-07-13T00:18:34;153.77;;;42.53;;
31091;SDS011;67728;53.122;12.776;2023-07-13T00:20:06;39.40;;;11.83;;
31091;SDS011;67728;53.122;12.776;2023-07-13T00:21:38;167.90;;;43.13;;
31091;SDS011;67728;53.122;12.776;2023-07-13T00:23:10;165.60;;;42.73;;
31091;SDS011;67728;53.122;12.776;2023-07-13T00:24:40;81.57;;;22.37;;
31091;SDS011;67728;53.122;12.776;2023-07-13T00:26:12;113.10;;;29.93;;
31091;SDS011;67728;53.122;12.776;2023-07-13T00:27:43;158.00;;;43.80;;
31091;SDS011;67728;53.122;12.776;2023-07-13T00:29:15;154.63;;;42.40;;
31091;SDS011;67728;53.122;12.776;2023-07-13T00:30:46;145.10;;;42.30;;
31091;SDS011;67728;53.122;12.776;2023-07-13T00:32:19;139.27;;;40.33;;
31091;SDS011;67728;53.122;12.776;2023-07-13T00:33:49;117.73;;;32.10;;
31091;SDS011;67728;53.122;12.776;2023-07-13T00:35:21;136.40;;;41.17;;
31091;SDS011;67728;53.122;12.776;2023-07-13T00:36:52;132.65;;;41.40;;
31091;SDS011;67728;53.122;12.776;2023-07-13T00:38:23;135.00;;;42.15;;
31091;SDS011;67728;53.122;12.776;2023-07-13T00:39:54;135.10;;;41.80;;
31091;SDS011;67728;53.122;12.776;2023-07-13T00:41:26;141.05;;;42.45;;
31091;SDS011;67728;53.122;12.776;2023-07-13T00:42:57;145.10;;;52.00;;
31091;SDS011;67728;53.122;12.776;2023-07-13T00:44:29;160.83;;;46.73;;
31091;SDS011;67728;53.122;12.776;2023-07-13T00:46:15;7.63;;;7.10;;
31091;SDS011;67728;53.122;12.776;2023-07-13T00:47:53;10.07;;;7.57;;
31091;SDS011;67728;53.122;12.776;2023-07-13T00:49:26;10.20;;;9.33;;
31091;SDS011;67728;53.122;12.776;2023-07-13T00:51:00;4.73;;;4.33;;
31091;SDS011;67728;53.122;12.776;2023-07-13T00:52:33;7.53;;;6.97;;
31091;SDS011;67728;53.122;12.776;2023-07-13T00:54:07;16.93;;;15.67;;
31091;SDS011;67728;53.122;12.776;2023-07-13T00:55:41;12.73;;;11.90;;
31091;SDS011;67728;53.122;12.776;2023-07-13T00:57:15;13.10;;;12.20;;
31091;SDS011;67728;53.122;12.776;2023-07-13T00:58:49;14.77;;;13.73;;
31091;SDS011;67728;53.122;12.776;2023-07-13T01:00:21;18.70;;;17.35;;
31091;SDS011;67728;53.122;12.776;2023-07-13T01:01:53;27.57;;;9.17;;
31091;SDS011;67728;53.122;12.776;2023-07-13T01:03:27;3.03;;;2.40;;
31091;SDS011;67728;53.122;12.776;2023-07-13T01:04:58;3.17;;;2.73;;
31091;SDS011;67728;53.122;12.776;2023-07-13T01:06:30;3.23;;;2.87;;
31091;SDS011;67728;53.122;12.776;2023-07-13T01:08:02;6.70;;;4.23;;
31091;SDS011;67728;53.122;12.776;2023-07-13T01:09:35;3.23;;;2.47;;
31091;SDS011;67728;53.122;12.776;2023-07-13T01:11:06;2.33;;;2.10;;
31091;SDS011;67728;53.122;12.776;2023-07-13T01:12:38;5.40;;;3.50;;
31091;SDS011;67728;53.122;12.776;2023-07-13T01:14:09;15.05;;;6.15;;
31091;SDS011;67728;53.122;12.776;2023-07-13T01:15:42;3.13;;;2.50;;
31091;SDS011;67728;53.122;12.776;2023-07-13T01:17:15;3.63;;;3.03;;
31091;SDS011;67728;53.122;12.776;2023-07-13T01:18:48;3.87;;;3.53;;
31091;SDS011;67728;53.122;12.776;2023-07-13T01:20:19;3.30;;;2.40;;
31091;SDS011;67728;53.122;12.776;2023-07-13T01:21:52;2.70;;;1.77;;
31091;SDS011;67728;53.122;12.776;2023-07-13T01:23:23;4.27;;;3.30;;
31091;SDS011;67728;53.122;12.776;2023-07-13T01:24:56;5.07;;;2.83;;
31091;SDS011;67728;53.122;12.776;2023-07-13T01:26:26;12.00;;;9.03;;
31091;SDS011;67728;53.122;12.776;2023-07-13T01:27:58;248.30;;;77.53;;
31091;SDS011;67728;53.122;12.776;2023-07-13T01:29:30;321.63;;;90.20;;
31091;SDS011;67728;53.122;12.776;2023-07-13T01:31:03;322.10;;;85.60;;
31091;SDS011;67728;53.122;12.776;2023-07-13T01:32:34;323.90;;;88.27;;
31091;SDS011;67728;53.122;12.776;2023-07-13T01:34:06;315.77;;;82.73;;
31091;SDS011;67728;53.122;12.776;2023-07-13T01:35:37;325.57;;;92.80;;
31091;SDS011;67728;53.122;12.776;2023-07-13T01:37:11;308.57;;;69.37;;
31091;SDS011;67728;53.122;12.776;2023-07-13T01:38:42;310.47;;;70.13;;
31091;SDS011;67728;53.122;12.776;2023-07-13T01:40:14;316.27;;;90.53;;
31091;SDS011;67728;53.122;12.776;2023-07-13T01:41:45;321.07;;;90.60;;
31091;SDS011;67728;53.122;12.776;2023-07-13T01:43:16;309.40;;;68.90;;
31091;SDS011;67728;53.122;12.776;2023-07-13T01:44:48;309.53;;;70.23;;
31091;SDS011;67728;53.122;12.776;2023-07-13T01:46:19;312.33;;;72.17;;
31091;SDS011;67728;53.122;12.776;2023-07-13T01:47:50;313.23;;;76.37;;
31091;SDS011;67728;53.122;12.776;2023-07-13T01:49:21;315.73;;;75.57;;
31091;SDS011;67728;53.122;12.776;2023-07-13T01:50:53;315.27;;;72.40;;
31091;SDS011;67728;53.122;12.776;2023-07-13T01:52:26;319.37;;;80.40;;
31091;SDS011;67728;53.122;12.776;2023-07-13T01:53:56;320.30;;;78.40;;
31091;SDS011;67728;53.122;12.776;2023-07-13T01:55:28;4.50;;;3.70;;
31091;SDS011;67728;53.122;12.776;2023-07-13T01:56:59;321.53;;;78.07;;
31091;SDS011;67728;53.122;12.776;2023-07-13T01:58:31;319.67;;;82.57;;
31091;SDS011;67728;53.122;12.776;2023-07-13T02:00:03;308.47;;;65.40;;
31091;SDS011;67728;53.122;12.776;2023-07-13T02:01:38;314.27;;;76.00;;
31091;SDS011;67728;53.122;12.776;2023-07-13T02:03:08;318.53;;;73.67;;
31091;SDS011;67728;53.122;12.776;2023-07-13T02:04:40;315.57;;;75.40;;
31091;SDS011;67728;53.122;12.776;2023-07-13T02:06:11;316.80;;;74.63;;
31091;SDS011;67728;53.122;12.776;2023-07-13T02:07:44;323.37;;;90.77;;
31091;SDS011;67728;53.122;12.776;2023-07-13T02:09:14;321.03;;;87.87;;
31091;SDS011;67728;53.122;12.776;2023-07-13T02:10:46;315.93;;;76.40;;
31091;SDS011;67728;53.122;12.776;2023-07-13T02:12:18;314.50;;;71.87;;
31091;SDS011;67728;53.122;12.776;2023-07-13T02:13:48;316.50;;;79.63;;
31091;SDS011;67728;53.122;12.776;2023-07-13T02:15:20;313.00;;;71.23;;
31091;SDS011;67728;53.122;12.776;2023-07-13T02:16:50;314.93;;;71.67;;
31091;SDS011;67728;53.122;12.776;2023-07-13T02:18:22;319.63;;;74.47;;
31091;SDS011;67728;53.122;12.776;2023-07-13T02:19:53;317.77;;;75.60;;
31091;SDS011;67728;53.122;12.776;2023-07-13T02:21:25;316.10;;;71.30;;
31091;SDS011;67728;53.122;12.776;2023-07-13T02:22:58;316.87;;;71.33;;
31091;SDS011;67728;53.122;12.776;2023-07-13T02:24:28;149.10;;;37.83;;
31091;SDS011;67728;53.122;12.776;2023-07-13T02:26:00;315.83;;;71.73;;
31091;SDS011;67728;53.122;12.776;2023-07-13T02:27:32;314.40;;;67.47;;
31091;SDS011;67728;53.122;12.776;2023-07-13T02:29:04;239.00;;;68.97;;
31091;SDS011;67728;53.122;12.776;2023-07-13T02:30:35;316.13;;;70.90;;
31091;SDS011;67728;53.122;12.776;2023-07-13T02:32:07;323.03;;;83.77;;
31091;SDS011;67728;53.122;12.776;2023-07-13T02:33:38;322.67;;;82.80;;
31091;SDS011;67728;53.122;12.776;2023-07-13T02:35:10;321.13;;;80.90;;
31091;SDS011;67728;53.122;12.776;2023-07-13T02:36:41;317.33;;;76.53;;
31091;SDS011;67728;53.122;12.776;2023-07-13T02:38:13;316.20;;;72.80;;
31091;SDS011;67728;53.122;12.776;2023-07-13T02:39:45;312.77;;;73.67;;
31091;SDS011;67728;53.122;12.776;2023-07-13T02:41:16;310.57;;;68.07;;
31091;SDS011;67728;53.122;12.776;2023-07-13T02:42:47;324.67;;;98.33;;
31091;SDS011;67728;53.122;12.776;2023-07-13T02:44:19;318.40;;;87.07;;
31091;SDS011;67728;53.122;12.776;2023-07-13T02:45:49;314.33;;;72.67;;
31091;SDS011;67728;53.122;12.776;2023-07-13T02:47:21;315.80;;;80.33;;
31091;SDS011;67728;53.122;12.776;2023-07-13T02:48:52;310.93;;;72.20;;
31091;SDS011;67728;53.122;12.776;2023-07-13T02:50:23;228.43;;;49.50;;
31091;SDS011;67728;53.122;12.776;2023-07-13T02:51:55;313.67;;;67.20;;
31091;SDS011;67728;53.122;12.776;2023-07-13T02:53:27;321.23;;;75.07;;
31091;SDS011;67728;53.122;12.776;2023-07-13T02:54:59;317.17;;;77.37;;
31091;SDS011;67728;53.122;12.776;2023-07-13T02:56:30;313.40;;;69.03;;
31091;SDS011;67728;53.122;12.776;2023-07-13T02:58:03;313.53;;;70.57;;
31091;SDS011;67728;53.122;12.776;2023-07-13T02:59:33;315.77;;;79.63;;
31091;SDS011;67728;53.122;12.776;2023-07-13T03:01:06;315.63;;;74.13;;
31091;SDS011;67728;53.122;12.776;2023-07-13T03:02:37;321.40;;;73.30;;
31091;SDS011;67728;53.122;12.776;2023-07-13T03:04:09;326.70;;;75.47;;
31091;SDS011;67728;53.122;12.776;2023-07-13T03:05:41;339.60;;;90.77;;
31091;SDS011;67728;53.122;12.776;2023-07-13T03:07:13;334.73;;;88.10;;
31091;SDS011;67728;53.122;12.776;2023-07-13T03:08:47;320.07;;;87.27;;
31091;SDS011;67728;53.122;12.776;2023-07-13T03:10:19;317.10;;;77.77;;
31091;SDS011;67728;53.122;12.776;2023-07-13T03:11:52;319.93;;;88.07;;
31091;SDS011;67728;53.122;12.776;2023-07-13T03:13:23;324.37;;;93.10;;
31091;SDS011;67728;53.122;12.776;2023-07-13T03:14:54;316.40;;;86.13;;
31091;SDS011;67728;53.122;12.776;2023-07-13T03:16:25;314.87;;;80.90;;
31091;SDS011;67728;53.122;12.776;2023-07-13T03:17:57;316.60;;;79.27;;
31091;SDS011;67728;53.122;12.776;2023-07-13T03:19:28;312.40;;;71.43;;
31091;SDS011;67728;53.122;12.776;2023-07-13T03:20:59;314.20;;;72.93;;
31091;SDS011;67728;53.122;12.776;2023-07-13T03:22:30;321.40;;;89.77;;
31091;SDS011;67728;53.122;12.776;2023-07-13T03:24:03;318.03;;;81.57;;
31091;SDS011;67728;53.122;12.776;2023-07-13T03:25:35;316.03;;;79.00;;
31091;SDS011;67728;53.122;12.776;2023-07-13T03:27:06;317.20;;;73.67;;
31091;SDS011;67728;53.122;12.776;2023-07-13T03:28:38;321.37;;;88.70;;
31091;SDS011;67728;53.122;12.776;2023-07-13T03:30:09;310.83;;;85.73;;
31091;SDS011;67728;53.122;12.776;2023-07-13T03:31:41;305.53;;;83.10;;
31091;SDS011;67728;53.122;12.776;2023-07-13T03:33:12;306.00;;;86.07;;
31091;SDS011;67728;53.122;12.776;2023-07-13T03:34:43;306.37;;;82.10;;
31091;SDS011;67728;53.122;12.776;2023-07-13T03:36:14;303.60;;;78.00;;
31091;SDS011;67728;53.122;12.776;2023-07-13T03:37:49;307.77;;;85.07;;
31091;SDS011;67728;53.122;12.776;2023-07-13T03:39:22;307.33;;;78.73;;
31091;SDS011;67728;53.122;12.776;2023-07-13T03:40:54;305.93;;;83.40;;
31091;SDS011;67728;53.122;12.776;2023-07-13T03:42:24;293.83;;;65.67;;
31091;SDS011;67728;53.122;12.776;2023-07-13T03:43:56;295.87;;;64.93;;
31091;SDS011;67728;53.122;12.776;2023-07-13T03:45:27;3.47;;;2.13;;
31091;SDS011;67728;53.122;12.776;2023-07-13T03:46:59;4.60;;;2.23;;
31091;SDS011;67728;53.122;12.776;2023-07-13T03:48:29;3.20;;;1.73;;
31091;SDS011;67728;53.122;12.776;2023-07-13T03:50:01;3.00;;;1.67;;
31091;SDS011;67728;53.122;12.776;2023-07-13T03:51:32;2.90;;;1.57;;
31091;SDS011;67728;53.122;12.776;2023-07-13T03:53:03;3.03;;;1.70;;
31091;SDS011;67728;53.122;12.776;2023-07-13T03:54:36;4.17;;;1.93;;
31091;SDS011;67728;53.122;12.776;2023-07-13T03:56:08;3.20;;;1.70;;
31091;SDS011;67728;53.122;12.776;2023-07-13T03:57:39;2.90;;;1.50;;
31091;SDS011;67728;53.122;12.776;2023-07-13T03:59:10;3.60;;;1.80;;
31091;SDS011;67728;53.122;12.776;2023-07-13T04:00:42;3.00;;;1.60;;
31091;SDS011;67728;53.122;12.776;2023-07-13T04:02:13;3.53;;;1.80;;
31091;SDS011;67728;53.122;12.776;2023-07-13T04:03:44;7.93;;;3.07;;
31091;SDS011;67728;53.122;12.776;2023-07-13T04:05:16;3.67;;;1.90;;
31091;SDS011;67728;53.122;12.776;2023-07-13T04:06:48;3.20;;;1.70;;
31091;SDS011;67728;53.122;12.776;2023-07-13T04:08:19;5.13;;;2.23;;
31091;SDS011;67728;53.122;12.776;2023-07-13T04:09:52;3.20;;;1.80;;
31091;SDS011;67728;53.122;12.776;2023-07-13T04:11:24;3.07;;;1.67;;
31091;SDS011;67728;53.122;12.776;2023-07-13T04:12:57;4.60;;;2.20;;
31091;SDS011;67728;53.122;12.776;2023-07-13T04:14:28;3.20;;;1.70;;
31091;SDS011;67728;53.122;12.776;2023-07-13T04:16:00;3.27;;;1.80;;
31091;SDS011;67728;53.122;12.776;2023-07-13T04:17:31;2.60;;;1.63;;
31091;SDS011;67728;53.122;12.776;2023-07-13T04:19:02;3.43;;;2.37;;
31091;SDS011;67728;53.122;12.776;2023-07-13T04:20:33;3.77;;;3.03;;
31091;SDS011;67728;53.122;12.776;2023-07-13T04:22:05;3.10;;;1.57;;
31091;SDS011;67728;53.122;12.776;2023-07-13T04:23:35;3.07;;;1.67;;
31091;SDS011;67728;53.122;12.776;2023-07-13T04:25:09;3.63;;;1.83;;
31091;SDS011;67728;53.122;12.776;2023-07-13T04:26:39;3.37;;;1.90;;
31091;SDS011;67728;53.122;12.776;2023-07-13T04:28:11;231.43;;;63.80;;
31091;SDS011;67728;53.122;12.776;2023-07-13T04:29:42;309.23;;;83.03;;
31091;SDS011;67728;53.122;12.776;2023-07-13T04:31:14;307.97;;;78.70;;
31091;SDS011;67728;53.122;12.776;2023-07-13T04:32:45;307.37;;;78.33;;
31091;SDS011;67728;53.122;12.776;2023-07-13T04:34:16;308.00;;;76.63;;
31091;SDS011;67728;53.122;12.776;2023-07-13T04:35:47;307.37;;;75.10;;
31091;SDS011;67728;53.122;12.776;2023-07-13T04:37:19;307.43;;;80.67;;
31091;SDS011;67728;53.122;12.776;2023-07-13T04:38:50;307.47;;;77.33;;
31091;SDS011;67728;53.122;12.776;2023-07-13T04:40:23;307.77;;;83.63;;
31091;SDS011;67728;53.122;12.776;2023-07-13T04:41:54;310.83;;;80.53;;
31091;SDS011;67728;53.122;12.776;2023-07-13T04:43:26;316.17;;;87.23;;
31091;SDS011;67728;53.122;12.776;2023-07-13T04:44:58;297.80;;;64.60;;
31091;SDS011;67728;53.122;12.776;2023-07-13T04:46:29;314.57;;;89.23;;
31091;SDS011;67728;53.122;12.776;2023-07-13T04:48:01;303.97;;;72.87;;
31091;SDS011;67728;53.122;12.776;2023-07-13T04:49:31;302.00;;;75.97;;
31091;SDS011;67728;53.122;12.776;2023-07-13T04:51:03;303.93;;;74.63;;
31091;SDS011;67728;53.122;12.776;2023-07-13T04:52:35;303.50;;;72.77;;
31091;SDS011;67728;53.122;12.776;2023-07-13T04:54:06;221.33;;;49.90;;
31091;SDS011;67728;53.122;12.776;2023-07-13T04:55:39;2.90;;;1.53;;
31091;SDS011;67728;53.122;12.776;2023-07-13T04:57:10;4.17;;;2.00;;
31091;SDS011;67728;53.122;12.776;2023-07-13T04:58:42;3.00;;;1.60;;
31091;SDS011;67728;53.122;12.776;2023-07-13T05:00:14;3.43;;;1.73;;
31091;SDS011;67728;53.122;12.776;2023-07-13T05:01:45;4.73;;;2.20;;
31091;SDS011;67728;53.122;12.776;2023-07-13T05:03:17;3.10;;;1.73;;
31091;SDS011;67728;53.122;12.776;2023-07-13T05:04:48;3.10;;;1.73;;
31091;SDS011;67728;53.122;12.776;2023-07-13T05:06:20;3.50;;;1.70;;
31091;SDS011;67728;53.122;12.776;2023-07-13T05:07:52;3.10;;;1.70;;
31091;SDS011;67728;53.122;12.776;2023-07-13T05:09:23;2.90;;;1.60;;
31091;SDS011;67728;53.122;12.776;2023-07-13T05:10:56;3.03;;;1.63;;
31091;SDS011;67728;53.122;12.776;2023-07-13T05:12:27;3.17;;;1.67;;
31091;SDS011;67728;53.122;12.776;2023-07-13T05:13:58;4.43;;;2.00;;
31091;SDS011;67728;53.122;12.776;2023-07-13T05:15:32;4.07;;;1.93;;
31091;SDS011;67728;53.122;12.776;2023-07-13T05:17:04;3.10;;;1.83;;
31091;SDS011;67728;53.122;12.776;2023-07-13T05:18:35;3.17;;;1.67;;
31091;SDS011;67728;53.122;12.776;2023-07-13T05:20:07;3.07;;;1.63;;
31091;SDS011;67728;53.122;12.776;2023-07-13T05:21:39;6.80;;;3.03;;
31091;SDS011;67728;53.122;12.776;2023-07-13T05:23:11;4.13;;;2.00;;
31091;SDS011;67728;53.122;12.776;2023-07-13T05:24:41;4.43;;;2.87;;
31091;SDS011;67728;53.122;12.776;2023-07-13T05:26:14;2.87;;;1.57;;
31091;SDS011;67728;53.122;12.776;2023-07-13T05:27:45;2.53;;;1.47;;
31091;SDS011;67728;53.122;12.776;2023-07-13T05:29:17;7.33;;;2.87;;
31091;SDS011;67728;53.122;12.776;2023-07-13T05:30:47;2.77;;;1.83;;
31091;SDS011;67728;53.122;12.776;2023-07-13T05:32:20;2.73;;;1.77;;
31091;SDS011;67728;53.122;12.776;2023-07-13T05:33:51;4.23;;;3.77;;
31091;SDS011;67728;53.122;12.776;2023-07-13T05:35:22;4.13;;;2.70;;
31091;SDS011;67728;53.122;12.776;2023-07-13T05:36:54;3.20;;;2.33;;
31091;SDS011;67728;53.122;12.776;2023-07-13T05:38:24;5.53;;;2.87;;
31091;SDS011;67728;53.122;12.776;2023-07-13T05:39:56;4.17;;;3.03;;
31091;SDS011;67728;53.122;12.776;2023-07-13T05:41:28;2.53;;;1.63;;
31091;SDS011;67728;53.122;12.776;2023-07-13T05:43:00;3.10;;;1.70;;
31091;SDS011;67728;53.122;12.776;2023-07-13T05:44:30;2.60;;;1.60;;
31091;SDS011;67728;53.122;12.776;2023-07-13T05:46:02;2.43;;;1.47;;
31091;SDS011;67728;53.122;12.776;2023-07-13T05:47:33;4.40;;;2.07;;
31091;SDS011;67728;53.122;12.776;2023-07-13T05:49:04;2.47;;;1.53;;
31091;SDS011;67728;53.122;12.776;2023-07-13T05:50:36;2.53;;;1.57;;
31091;SDS011;67728;53.122;12.776;2023-07-13T05:52:07;2.60;;;1.47;;
31091;SDS011;67728;53.122;12.776;2023-07-13T05:53:39;2.47;;;1.47;;
31091;SDS011;67728;53.122;12.776;2023-07-13T05:55:10;2.80;;;1.67;;
31091;SDS011;67728;53.122;12.776;2023-07-13T05:56:43;2.57;;;1.60;;
31091;SDS011;67728;53.122;12.776;2023-07-13T05:58:13;4.60;;;2.03;;
31091;SDS011;67728;53.122;12.776;2023-07-13T05:59:45;3.43;;;1.77;;
31091;SDS011;67728;53.122;12.776;2023-07-13T06:01:16;2.63;;;1.83;;
31091;SDS011;67728;53.122;12.776;2023-07-13T06:02:50;2.47;;;1.50;;
31091;SDS011;67728;53.122;12.776;2023-07-13T06:04:20;6.23;;;2.63;;
31091;SDS011;67728;53.122;12.776;2023-07-13T06:05:52;2.57;;;1.60;;
31091;SDS011;67728;53.122;12.776;2023-07-13T06:07:23;14.20;;;4.93;;
31091;SDS011;67728;53.122;12.776;2023-07-13T06:08:54;31.83;;;9.93;;
31091;SDS011;67728;53.122;12.776;2023-07-13T06:10:25;2.97;;;1.60;;
31091;SDS011;67728;53.122;12.776;2023-07-13T06:11:58;2.43;;;1.57;;
31091;SDS011;67728;53.122;12.776;2023-07-13T06:13:29;3.03;;;1.77;;
31091;SDS011;67728;53.122;12.776;2023-07-13T06:15:00;5.43;;;2.40;;
31091;SDS011;67728;53.122;12.776;2023-07-13T06:16:31;2.50;;;1.50;;
31091;SDS011;67728;53.122;12.776;2023-07-13T06:18:03;1.77;;;1.27;;
31091;SDS011;67728;53.122;12.776;2023-07-13T06:19:33;4.83;;;2.27;;
31091;SDS011;67728;53.122;12.776;2023-07-13T06:21:06;2.43;;;1.57;;
31091;SDS011;67728;53.122;12.776;2023-07-13T06:22:37;1.90;;;1.33;;
31091;SDS011;67728;53.122;12.776;2023-07-13T06:24:09;2.13;;;1.50;;
31091;SDS011;67728;53.122;12.776;2023-07-13T06:25:41;1.97;;;1.40;;
31091;SDS011;67728;53.122;12.776;2023-07-13T06:27:16;2.30;;;1.57;;
31091;SDS011;67728;53.122;12.776;2023-07-13T06:28:46;2.30;;;1.53;;
31091;SDS011;67728;53.122;12.776;2023-07-13T06:30:18;2.43;;;1.47;;
31091;SDS011;67728;53.122;12.776;2023-07-13T06:31:49;2.47;;;1.50;;
31091;SDS011;67728;53.122;12.776;2023-07-13T06:33:20;2.37;;;1.57;;
31091;SDS011;67728;53.122;12.776;2023-07-13T06:34:51;1.63;;;1.40;;
31091;SDS011;67728;53.122;12.776;2023-07-13T06:36:22;1.50;;;1.40;;
31091;SDS011;67728;53.122;12.776;2023-07-13T06:37:53;2.60;;;1.73;;
31091;SDS011;67728;53.122;12.776;2023-07-13T06:39:25;2.13;;;1.63;;
31091;SDS011;67728;53.122;12.776;2023-07-13T06:40:56;3.00;;;1.70;;
31091;SDS011;67728;53.122;12.776;2023-07-13T06:42:28;1.57;;;1.20;;
31091;SDS011;67728;53.122;12.776;2023-07-13T06:44:00;1.47;;;1.23;;
31091;SDS011;67728;53.122;12.776;2023-07-13T06:45:32;2.40;;;1.53;;
31091;SDS011;67728;53.122;12.776;2023-07-13T06:47:04;1.37;;;1.10;;
31091;SDS011;67728;53.122;12.776;2023-07-13T06:48:35;2.17;;;1.40;;
31091;SDS011;67728;53.122;12.776;2023-07-13T06:50:07;5.43;;;2.50;;
31091;SDS011;67728;53.122;12.776;2023-07-13T06:51:38;1.60;;;1.37;;
31091;SDS011;67728;53.122;12.776;2023-07-13T06:53:10;1.83;;;1.47;;
31091;SDS011;67728;53.122;12.776;2023-07-13T06:54:41;1.53;;;1.30;;
31091;SDS011;67728;53.122;12.776;2023-07-13T06:56:13;2.10;;;1.40;;
31091;SDS011;67728;53.122;12.776;2023-07-13T06:57:46;1.50;;;1.20;;
31091;SDS011;67728;53.122;12.776;2023-07-13T06:59:16;5.07;;;2.50;;
31091;SDS011;67728;53.122;12.776;2023-07-13T07:00:49;1.47;;;1.30;;
31091;SDS011;67728;53.122;12.776;2023-07-13T07:02:20;2.70;;;2.43;;
31091;SDS011;67728;53.122;12.776;2023-07-13T07:03:52;1.63;;;1.30;;
31091;SDS011;67728;53.122;12.776;2023-07-13T07:05:24;6.90;;;2.80;;
31091;SDS011;67728;53.122;12.776;2023-07-13T07:06:55;3.27;;;2.33;;
31091;SDS011;67728;53.122;12.776;2023-07-13T07:08:26;3.30;;;1.73;;
31091;SDS011;67728;53.122;12.776;2023-07-13T07:09:58;1.60;;;1.37;;
31091;SDS011;67728;53.122;12.776;2023-07-13T07:11:29;6.70;;;2.90;;
31091;SDS011;67728;53.122;12.776;2023-07-13T07:13:02;2.80;;;2.60;;
31091;SDS011;67728;53.122;12.776;2023-07-13T07:14:33;3.20;;;2.90;;
31091;SDS011;67728;53.122;12.776;2023-07-13T07:16:04;1.93;;;1.40;;
31091;SDS011;67728;53.122;12.776;2023-07-13T07:17:35;2.10;;;1.60;;
31091;SDS011;67728;53.122;12.776;2023-07-13T07:19:07;3.73;;;1.90;;
31091;SDS011;67728;53.122;12.776;2023-07-13T07:20:39;2.63;;;1.63;;
31091;SDS011;67728;53.122;12.776;2023-07-13T07:22:09;2.10;;;1.43;;
31091;SDS011;67728;53.122;12.776;2023-07-13T07:23:41;6.63;;;2.97;;
31091;SDS011;67728;53.122;12.776;2023-07-13T07:25:13;300.07;;;93.53;;
31091;SDS011;67728;53.122;12.776;2023-07-13T07:26:44;296.67;;;95.37;;
31091;SDS011;67728;53.122;12.776;2023-07-13T07:28:17;324.37;;;104.23;;
31091;SDS011;67728;53.122;12.776;2023-07-13T07:29:48;295.10;;;96.20;;
31091;SDS011;67728;53.122;12.776;2023-07-13T07:31:19;305.00;;;116.30;;
31091;SDS011;67728;53.122;12.776;2023-07-13T07:32:51;294.10;;;99.83;;
31091;SDS011;67728;53.122;12.776;2023-07-13T07:34:22;286.13;;;83.37;;
31091;SDS011;67728;53.122;12.776;2023-07-13T07:35:54;285.33;;;78.07;;
31091;SDS011;67728;53.122;12.776;2023-07-13T07:37:25;209.47;;;59.13;;
31091;SDS011;67728;53.122;12.776;2023-07-13T07:38:56;287.30;;;79.93;;
31091;SDS011;67728;53.122;12.776;2023-07-13T07:40:28;289.27;;;83.07;;
31091;SDS011;67728;53.122;12.776;2023-07-13T07:41:58;289.87;;;80.47;;
31091;SDS011;67728;53.122;12.776;2023-07-13T07:43:31;51.93;;;13.63;;
31091;SDS011;67728;53.122;12.776;2023-07-13T07:45:02;287.87;;;79.50;;
31091;SDS011;67728;53.122;12.776;2023-07-13T07:46:34;289.33;;;78.73;;
31091;SDS011;67728;53.122;12.776;2023-07-13T07:48:05;287.77;;;80.00;;
31091;SDS011;67728;53.122;12.776;2023-07-13T07:49:39;132.27;;;37.40;;
31091;SDS011;67728;53.122;12.776;2023-07-13T07:51:10;292.30;;;83.67;;
31091;SDS011;67728;53.122;12.776;2023-07-13T07:52:41;289.70;;;79.53;;
31091;SDS011;67728;53.122;12.776;2023-07-13T07:54:14;290.40;;;83.07;;
31091;SDS011;67728;53.122;12.776;2023-07-13T07:55:45;290.30;;;84.87;;
31091;SDS011;67728;53.122;12.776;2023-07-13T07:57:17;290.93;;;84.40;;
31091;SDS011;67728;53.122;12.776;2023-07-13T07:58:50;4.87;;;2.43;;
31091;SDS011;67728;53.122;12.776;2023-07-13T08:00:22;5.33;;;2.63;;
31091;SDS011;67728;53.122;12.776;2023-07-13T08:01:53;4.90;;;2.47;;
31091;SDS011;67728;53.122;12.776;2023-07-13T08:03:24;6.17;;;2.63;;
31091;SDS011;67728;53.122;12.776;2023-07-13T08:04:55;3.87;;;2.00;;
31091;SDS011;67728;53.122;12.776;2023-07-13T08:06:26;4.43;;;2.13;;
31091;SDS011;67728;53.122;12.776;2023-07-13T08:07:57;7.57;;;2.97;;
31091;SDS011;67728;53.122;12.776;2023-07-13T08:09:29;8.17;;;3.40;;
31091;SDS011;67728;53.122;12.776;2023-07-13T08:11:02;4.27;;;2.17;;
31091;SDS011;67728;53.122;12.776;2023-07-13T08:12:34;4.40;;;2.07;;
31091;SDS011;67728;53.122;12.776;2023-07-13T08:14:06;3.30;;;1.70;;
31091;SDS011;67728;53.122;12.776;2023-07-13T08:15:39;3.70;;;2.07;;
31091;SDS011;67728;53.122;12.776;2023-07-13T08:17:10;3.33;;;1.77;;
31091;SDS011;67728;53.122;12.776;2023-07-13T08:18:42;4.43;;;2.20;;
31091;SDS011;67728;53.122;12.776;2023-07-13T08:20:12;5.70;;;2.57;;
31091;SDS011;67728;53.122;12.776;2023-07-13T08:21:44;3.23;;;1.67;;
31091;SDS011;67728;53.122;12.776;2023-07-13T08:23:15;3.70;;;1.80;;
31091;SDS011;67728;53.122;12.776;2023-07-13T08:24:47;3.43;;;1.83;;
31091;SDS011;67728;53.122;12.776;2023-07-13T08:26:25;3.87;;;1.93;;
31091;SDS011;67728;53.122;12.776;2023-07-13T08:27:56;5.63;;;2.43;;
31091;SDS011;67728;53.122;12.776;2023-07-13T08:29:29;3.50;;;1.83;;
31091;SDS011;67728;53.122;12.776;2023-07-13T08:31:01;3.60;;;2.00;;
31091;SDS011;67728;53.122;12.776;2023-07-13T08:32:32;3.83;;;1.93;;
31091;SDS011;67728;53.122;12.776;2023-07-13T08:34:04;3.50;;;2.00;;
31091;SDS011;67728;53.122;12.776;2023-07-13T08:35:35;3.57;;;2.00;;
31091;SDS011;67728;53.122;12.776;2023-07-13T08:37:07;7.80;;;3.80;;
31091;SDS011;67728;53.122;12.776;2023-07-13T08:38:38;3.43;;;1.80;;
31091;SDS011;67728;53.122;12.776;2023-07-13T08:40:09;3.43;;;1.80;;
31091;SDS011;67728;53.122;12.776;2023-07-13T08:41:41;3.30;;;1.70;;
31091;SDS011;67728;53.122;12.776;2023-07-13T08:43:13;4.40;;;2.20;;
31091;SDS011;67728;53.122;12.776;2023-07-13T08:44:54;3.37;;;1.70;;
31091;SDS011;67728;53.122;12.776;2023-07-13T08:46:36;3.23;;;1.80;;
31091;SDS011;67728;53.122;12.776;2023-07-13T08:48:10;4.60;;;2.10;;
31091;SDS011;67728;53.122;12.776;2023-07-13T08:49:45;3.40;;;1.80;;
31091;SDS011;67728;53.122;12.776;2023-07-13T08:51:22;3.80;;;1.90;;
31091;SDS011;67728;53.122;12.776;2023-07-13T08:53:01;3.43;;;1.83;;
31091;SDS011;67728;53.122;12.776;2023-07-13T08:54:35;3.37;;;1.83;;